Temp     Hi    Low   Out    Dew  Wind  Wind   Wind    Hi    Hi   Wind   Heat    THW   THSW                Rain  Solar   Solar Hi Solar   UV    UV    Hi     Heat    Cool    In     In    In     In           Wind  Wind    ISS   Arc.
  Date    Time     Out   Temp   Temp   Hum    Pt. Speed   Dir    Run Speed   Dir  Chill  Index  Index  Index   Bar    Rain  Rate   Rad.  Energy    Rad.  Index  Dose   UV     D-D     D-D    Temp   Hum    Dew   Heat     ET   Samp   Tx   Recept  Int.
---------------------------------------------------------------------------------------------------------------------------------------------------------------------------------------------------------------------------------------------------------
14/08/22   0.15   24.1   24.1   24.0    69   18.1   0.0    NE   0.00   1.6    NE   24.1   25.0   25.0   23.8   568.7  0.00   0.0     0     0.00      0     0.0  0.00   0.0   0.000   0.060   29.2    54   19.0   30.7    0.00   348    1    100.0   15 
14/08/22   0.30   24.2   24.3   24.1    68   17.9   0.0   ---   0.00   0.0   ---   24.2   25.1   25.1   23.9   568.7  0.00   0.0     0     0.00      0     0.0  0.00   0.0   0.000   0.061   29.1    54   18.9   30.5    0.00   351    1    100.0   15 
14/08/22   0.45   23.8   24.2   23.8    69   17.7   0.0   ---   0.00   0.0   ---   23.8   24.7   24.7   23.4   568.7  0.00   0.0     0     0.00      0     0.0  0.00   0.0   0.000   0.057   29.0    54   18.8   30.4    0.00   349    1    100.0   15 
14/08/22   1.00   22.6   23.7   22.6    68   16.4   0.0   ---   0.00   0.0   ---   22.6   23.0   23.0   21.7   568.7  0.00   0.0     0     0.00      0     0.0  0.00   0.0   0.000   0.044   29.0    52   18.1   30.2    0.03   349    1    100.0   15 
14/08/22   1.15   22.3   22.6   22.2    69   16.3   0.0   ---   0.00   0.0   ---   22.3   22.7   22.7   21.4   568.7  0.00   0.0     0     0.00      0     0.0  0.00   0.0   0.000   0.041   28.7    52   17.8   29.7    0.00   347    1    100.0   15 
14/08/22   1.30   21.8   22.3   21.8    68   15.7   0.0   ---   0.00   0.0   ---   21.8   22.0   22.0   20.7   568.7  0.00   0.0     0     0.00      0     0.0  0.00   0.0   0.000   0.036   28.7    51   17.5   29.6    0.00   350    1    100.0   15 
14/08/22   1.45   21.3   21.8   21.3    68   15.2   0.0   ---   0.00   0.0   ---   21.3   21.3   21.3   20.0   568.7  0.00   0.0     0     0.00      0     0.0  0.00   0.0   0.000   0.031   28.6    51   17.4   29.4    0.00   347    1    100.0   15 
14/08/22   2.00   21.1   21.3   21.1    71   15.6   0.0   ---   0.00   0.0   ---   21.1   21.2   21.2   19.9   568.7  0.00   0.0     0     0.00      0     0.0  0.00   0.0   0.000   0.029   28.4    50   17.0   29.2    0.03   351    1    100.0   15 
14/08/22   2.15   20.9   21.1   20.9    72   15.7   0.0   ---   0.00   0.0   ---   20.9   21.2   21.2   19.9   568.7  0.00   0.0     0     0.00      0     0.0  0.00   0.0   0.000   0.027   28.3    51   17.2   29.1    0.00   352    1    100.0   15 
14/08/22   2.30   21.8   21.8   20.9    72   16.5   0.0   ---   0.00   0.0   ---   21.8   22.1   22.1   20.8   568.7  0.00   0.0     0     0.00      0     0.0  0.00   0.0   0.000   0.036   28.2    52   17.4   29.0    0.00   351    1    100.0   15 
14/08/22   2.45   22.0   22.0   21.7    74   17.2   0.0   ---   0.00   0.0   ---   22.0   22.5   22.5   21.3   568.7  0.00   0.0     0     0.00      0     0.0  0.00   0.0   0.000   0.038   28.2    53   17.7   29.1    0.00   350    1    100.0   15 
14/08/22   3.00   22.7   22.7   22.1    76   18.3   0.0   ---   0.00   0.0   ---   22.7   23.6   23.6   22.4   568.7  0.00   0.0     0     0.00      0     0.0  0.00   0.0   0.000   0.046   28.2    54   18.0   29.2    0.03   348    1    100.0   15 
14/08/22   3.15   23.1   23.1   22.8    76   18.6   0.0   ---   0.00   0.0   ---   23.1   24.0   24.0   22.8   568.7  0.00   0.0     0     0.00      0     0.0  0.00   0.0   0.000   0.049   28.3    56   18.7   29.5    0.00   348    1    100.0   15 
14/08/22   3.30   22.8   23.1   22.8    75   18.2   0.0   ---   0.00   0.0   ---   22.8   23.7   23.7   22.5   568.7  0.00   0.0     0     0.00      0     0.0  0.00   0.0   0.000   0.047   28.3    57   19.0   29.6    0.00   351    1    100.0   15 
14/08/22   3.45   22.1   22.8   22.1    77   17.8   0.0   ---   0.00   0.0   ---   22.1   22.7   22.7   21.5   568.7  0.00   0.0     0     0.00      0     0.0  0.00   0.0   0.000   0.039   28.2    57   18.9   29.4    0.00   349    1    100.0   15 
14/08/22   4.00   22.3   22.3   21.8    76   17.8   0.0   NNE   0.00   1.6   NNE   22.3   22.9   22.9   21.7   568.7  0.00   0.0     0     0.00      0     0.0  0.00   0.0   0.000   0.041   28.0    58   19.0   29.2    0.03   349    1    100.0   15 
14/08/22   4.15   22.0   22.3   22.0    75   17.4   0.0   ---   0.00   0.0   ---   22.0   22.5   22.5   21.3   568.7  0.00   0.0     0     0.00      0     0.0  0.00   0.0   0.000   0.038   28.0    58   19.0   29.2    0.00   348    1    100.0   15 
14/08/22   4.30   21.8   21.9   21.7    71   16.3   0.0    NW   0.00   8.0    NW   21.8   22.1   22.1   20.8   568.7  0.00   0.0     0     0.00      0     0.0  0.00   0.0   0.000   0.036   28.0    57   18.7   29.1    0.00   348    1    100.0   15 
14/08/22   4.45   24.6   24.6   21.8    55   14.9   3.2   NNW   0.80  14.5   NNW   24.6   24.7   24.7   23.3   568.7  0.00   0.0     0     0.00      0     0.0  0.00   0.0   0.000   0.065   27.9    54   17.7   28.6    0.00   350    1    100.0   15 
14/08/22   5.00   24.8   25.0   24.6    52   14.3   0.0    NW   0.00   4.8    NW   24.8   24.8   24.8   23.4   568.7  0.00   0.0     0     0.00      0     0.0  0.00   0.0   0.000   0.067   27.8    51   16.8   28.3    0.03   350    1    100.0   15 
14/08/22   5.15   23.3   24.8   23.3    57   14.3   0.0   ---   0.00   0.0   ---   23.3   23.6   23.6   22.2   568.7  0.00   0.0     0     0.00      0     0.0  0.00   0.0   0.000   0.052   27.9    50   16.5   28.3    0.00   350    1    100.0   15 
14/08/22   5.30   23.1   23.3   22.6    56   13.9   0.0   ---   0.00   0.0   ---   23.1   23.2   23.2   21.8   568.7  0.00   0.0     0     0.00      0     0.0  0.00   0.0   0.000   0.050   27.7    49   16.0   27.9    0.00   351    1    100.0   15 
14/08/22   5.45   22.9   23.6   22.9    56   13.7   0.0   NNW   0.00   3.2   NNW   22.9   23.0   23.0   21.6   568.7  0.00   0.0     0     0.00      0     0.0  0.00   0.0   0.000   0.048   27.7    48   15.7   27.9    0.00   350    1    100.0   15 
14/08/22   6.00   21.2   22.9   21.2    62   13.6   0.0   NNW   0.00   1.6   NNW   21.2   20.8   20.8   19.4   568.7  0.00   0.0     0     0.00      0     0.0  0.00   0.0   0.000   0.030   27.6    48   15.6   27.7    0.05   351    1    100.0   15 
14/08/22   6.15   21.6   21.6   21.0    59   13.2   0.0   NNE   0.00   1.6   NNE   21.6   21.2   21.2   19.7   568.7  0.00   0.0     0     0.00      0     0.0  0.00   0.0   0.000   0.034   27.5    48   15.5   27.6    0.00   351    1    100.0   15 
14/08/22   6.30   20.8   21.6   20.8    61   13.0   0.0   ---   0.00   0.0   ---   20.8   20.5   20.5   19.1   568.7  0.00   0.0     5     0.11      9     0.0  0.00   0.0   0.000   0.026   27.4    47   15.1   27.3    0.00   351    1    100.0   15 
14/08/22   6.45   19.8   20.9   19.8    63   12.6   0.0   ---   0.00   0.0   ---   19.8   19.8   19.8   18.4   568.7  0.00   0.0    12     0.26     16     0.0  0.00   0.0   0.000   0.016   27.1    47   14.8   26.9    0.00   348    1    100.0   15 
14/08/22   7.00   19.9   19.9   19.7    62   12.4   0.0   ---   0.00   0.0   ---   19.9   19.9   19.9   19.3   568.7  0.00   0.0    18     0.39     19     0.0  0.00   0.0   0.000   0.017   27.0    46   14.4   26.8    0.03   347    1    100.0   15 
14/08/22   7.15   19.9   19.9   19.8    64   12.9   0.0   ---   0.00   0.0   ---   19.9   19.9   19.9   20.4   568.7  0.00   0.0    57     1.23    114     0.0  0.00   0.0   0.000   0.016   26.9    47   14.6   26.8    0.00   349    1    100.0   15 
14/08/22   7.30   20.4   20.4   19.8    62   12.9   0.0   ---   0.00   0.0   ---   20.4   20.3   20.3   21.7   568.7  0.00   0.0    99     2.13    120     0.0  0.00   0.0   0.000   0.022   26.8    47   14.5   26.7    0.00   350    1    100.0   15 
14/08/22   7.45   21.5   21.5   20.4    62   13.9   0.0   ---   0.00   0.0   ---   21.5   21.3   21.3   23.7   568.7  0.00   0.0   149     3.20    176     0.0  0.00   0.0   0.000   0.033   26.9    47   14.6   26.8    0.00   350    1    100.0   15 
14/08/22   8.00   22.6   22.6   21.6    61   14.7   0.0   ---   0.00   0.0   ---   22.6   22.7   22.7   26.1   568.7  0.00   0.0   202     4.34    229     0.0  0.00   0.0   0.000   0.044   27.0    48   15.1   26.9    0.00   349    1    100.0   15 
14/08/22   8.15   24.5   24.5   22.6    57   15.4   0.0   ---   0.00   0.0   ---   24.5   24.8   24.8   28.9   568.7  0.00   0.0   258     5.55    278     0.0  0.00   0.0   0.000   0.064   27.2    49   15.5   27.2    0.08   349    1    100.0   15 
14/08/22   8.30   26.4   26.4   24.5    52   15.7   0.0   ---   0.00   0.0   ---   26.4   26.6   26.6   31.1   568.7  0.00   0.0   297     6.39    320     0.0  0.00   0.0   0.000   0.084   27.2    50   15.8   27.3    0.00   351    1    100.0   15 
14/08/22   8.45   27.1   27.1   26.4    48   15.1   1.6    SE   0.40   8.0   SSE   27.1   27.0   27.0   31.9   568.7  0.00   0.0   343     7.38    362     0.0  0.00   0.0   0.000   0.091   27.4    49   15.7   27.5    0.00   350    1    100.0   15 
14/08/22   9.00   27.3   27.3   27.0    50   15.9   1.6   SSE   0.40   9.7    SE   27.3   27.4   27.4   32.6   568.7  0.00   0.0   384     8.26    403     0.0  0.00   0.0   0.000   0.093   27.5    49   15.8   27.7    0.23   349    1    100.0   15 
14/08/22   9.15   27.4   27.4   27.3    49   15.8   0.0   SSW   0.00   6.4    SE   27.4   27.6   27.6   32.9   568.7  0.00   0.0   423     9.10    438     0.0  0.00   0.0   0.000   0.095   27.6    49   15.9   27.8    0.00   350    1    100.0   15 
14/08/22   9.30   27.6   27.6   27.4    48   15.6   1.6     S   0.40   8.0    SE   27.6   27.7   27.7   33.2   568.7  0.00   0.0   463     9.96    483     0.0  0.00   0.0   0.000   0.096   27.7    48   15.7   27.9    0.00   350    1    100.0   15 
14/08/22   9.45   27.7   27.7   27.6    50   16.3   1.6   SSE   0.40   9.7    SE   27.7   27.9   27.9   33.7   568.7  0.00   0.0   502    10.79    517     0.1  0.01   0.5   0.000   0.097   27.9    49   16.2   28.2    0.00   349    1    100.0   15 
14/08/22  10.00   27.8   27.9   27.7    50   16.4   1.6     S   0.40   8.0   SSW   27.8   28.1   28.1   33.9   568.7  0.00   0.0   537    11.55    555     0.6  0.06   0.7   0.000   0.098   28.0    50   16.6   28.4    0.33   350    1    100.0   15 
14/08/22  10.15   27.9   27.9   27.4    51   16.9   3.2     S   0.80  11.3     S   27.9   28.4   28.4   34.4   568.7  0.00   0.0   574    12.34    589     0.8  0.09   1.0   0.000   0.100   28.1    49   16.4   28.6    0.00   350    1    100.0   15 
14/08/22  10.30   28.0   28.1   27.9    51   16.9   3.2   SSE   0.80   9.7    SE   28.0   28.6   28.6   34.7   568.7  0.00   0.0   605    13.01    617     1.1  0.12   1.2   0.000   0.101   28.2    49   16.5   28.7    0.00   351    1    100.0   15 
14/08/22  10.45   27.9   28.1   27.6    51   16.8   3.2     S   0.80  14.5     S   27.9   28.4   28.4   34.5   568.7  0.00   0.0   628    13.50    640     1.3  0.14   1.3   0.000   0.100   28.3    50   16.9   29.0    0.00   349    1    100.0   15 
14/08/22  11.00   28.1   28.2   27.8    51   17.0   3.2     S   0.80  11.3     S   28.1   28.6   28.6   34.9   568.7  0.00   0.0   679    14.60    717     1.6  0.17   1.8   0.000   0.101   28.4    50   17.0   29.2    0.43   351    1    100.0   15 
14/08/22  11.15   27.8   28.2   27.8    52   17.1   6.4     S   1.61  17.7     S   27.8   28.4   28.4   34.8   568.7  0.00   0.0   751    16.15    823     1.8  0.19   2.0   0.000   0.099   28.7    50   17.2   29.6    0.00   351    1    100.0   15 
14/08/22  11.30   27.6   27.9   27.6    55   17.8   4.8     S   1.21  11.3   SSW   27.6   28.3   28.3   34.2   568.7  0.00   0.0   615    13.22    744     1.6  0.17   2.1   0.000   0.097   28.8    50   17.3   29.7    0.00   350    1    100.0   15 
14/08/22  11.45   27.7   27.9   27.6    54   17.5   3.2   SSE   0.80   9.7   SSE   27.7   28.3   28.3   32.4   568.7  0.00   0.0   399     8.58    499     1.1  0.12   1.8   0.000   0.097   28.9    51   17.7   30.0    0.00   351    1    100.0   15 
14/08/22  12.00   27.6   27.7   27.3    53   17.1   4.8   SSE   1.21  11.3   SSE   27.6   28.1   28.1   32.8   568.7  0.00   0.0   463     9.96    888     1.4  0.15   2.5   0.000   0.096   28.9    51   17.7   30.0    0.41   350    1    100.0   15 
14/08/22  12.15   27.6   27.7   27.5    52   16.8   1.6     S   0.40   9.7     S   27.6   27.9   27.9   31.9   568.7  0.00   0.0   385     8.28    522     0.9  0.10   2.3   0.000   0.096   29.0    50   17.5   30.0    0.00   350    1    100.0   15 
14/08/22  12.30   27.1   27.5   27.1    53   16.7   1.6     S   0.40   8.0     S   27.1   27.4   27.4   29.4   568.7  0.00   0.0   216     4.64    338     0.1  0.01   0.6   0.000   0.091   28.9    50   17.4   29.9    0.00   349    1    100.0   15 
14/08/22  12.45   27.4   27.5   27.0    51   16.4   1.6     S   0.40   8.0     S   27.4   27.7   27.7   31.6   568.7  0.00   0.0   375     8.06    468     0.9  0.10   1.7   0.000   0.095   28.9    49   17.1   29.8    0.00   349    1    100.0   15 
14/08/22  13.00   27.3   27.4   27.2    52   16.6   0.0     S   0.00   8.0     S   27.3   27.7   27.7   31.6   568.7  0.00   0.0   377     8.11    469     1.0  0.11   1.5   0.000   0.094   28.9    49   17.1   29.8    0.23   351    1    100.0   15 
14/08/22  13.15   27.7   27.8   27.4    48   15.7   0.0     S   0.00   6.4     S   27.7   27.8   27.8   30.1   568.7  0.00   0.0   241     5.18    464     0.3  0.03   1.6   0.000   0.097   28.9    48   16.8   29.7    0.00   349    1    100.0   15 
14/08/22  13.30   27.6   27.7   27.4    50   16.2   0.0     S   0.00   9.7   SSW   27.6   27.8   27.8   31.1   568.7  0.00   0.0   326     7.01    434     0.7  0.07   1.6   0.000   0.096   29.0    48   16.9   29.8    0.00   351    1    100.0   15 
14/08/22  13.45   28.1   28.2   27.6    50   16.7   4.8    SE   1.21  11.3    SE   28.1   28.7   28.7   34.5   568.7  0.00   0.0   609    13.10    696     3.0  0.32   4.3   0.000   0.102   29.2    49   17.4   30.1    0.00   349    1    100.0   15 
14/08/22  14.00   28.1   28.4   28.0    51   17.0   4.8   SSE   1.21  11.3    SE   28.1   28.6   28.6   34.7   568.7  0.00   0.0   640    13.76   1060     2.6  0.28   4.3   0.000   0.101   29.6    49   17.7   30.5    0.33   349    1    100.0   15 
14/08/22  14.15   27.2   28.1   27.2    57   18.0   3.2    NE   0.80   9.7    SE   27.2   27.9   27.9   29.8   568.7  0.00   0.0   207     4.45    322     0.2  0.02   1.1   0.000   0.093   29.6    50   18.0   30.6    0.00   351    1    100.0   15 
14/08/22  14.30   27.9   27.9   27.2    51   16.8   0.0   SSW   0.00   6.4   SSW   27.9   28.4   28.4   30.7   568.7  0.00   0.0   238     5.12    318     0.1  0.01   0.7   0.000   0.100   29.7    49   17.8   30.7    0.00   350    1    100.0   15 
14/08/22  14.45   28.6   28.6   27.8    49   16.8   1.6     S   0.40   8.0   SSW   28.6   29.3   29.3   34.6   568.7  0.00   0.0   525    11.29    884     1.8  0.19   3.0   0.000   0.106   29.7    48   17.5   30.6    0.00   350    1    100.0   15 
14/08/22  15.00   29.1   29.2   28.5    51   17.9   3.2   SSE   0.80  11.3   SSE   29.1   30.2   30.2   36.7   568.7  0.00   0.0   791    17.01    803     2.7  0.29   2.8   0.000   0.112   30.0    48   17.8   31.0    0.30   351    1    100.0   15 
14/08/22  15.15   28.7   29.1   28.2    54   18.4   4.8    SE   1.21  16.1    SE   28.7   29.9   29.9   36.3   568.7  0.00   0.0   706    15.18    824     2.2  0.24   2.6   0.000   0.108   30.2    49   18.3   31.5    0.00   350    1    100.0   15 
14/08/22  15.30   28.5   28.6   28.4    52   17.7   3.2    SE   0.80  11.3   ESE   28.5   29.4   29.4   35.8   568.7  0.00   0.0   728    15.65    744     2.2  0.24   2.3   0.000   0.106   30.4    49   18.5   31.9    0.00   350    1    100.0   15 
14/08/22  15.45   28.6   28.8   28.6    52   17.8   3.2    SE   0.80  11.3   SSE   28.6   29.6   29.6   36.0   568.7  0.00   0.0   690    14.84    707     1.9  0.20   2.0   0.000   0.107   30.7    48   18.4   32.1    0.00   349    1    100.0   15 
14/08/22  16.00   28.4   28.7   28.3    54   18.2   3.2   SSE   0.80  11.3   SSE   28.4   29.5   29.5   35.8   568.7  0.00   0.0   659    14.17    675     1.5  0.16   1.7   0.000   0.105   30.8    48   18.5   32.2    0.48   350    1    100.0   15 
14/08/22  16.15   28.4   28.5   28.3    54   18.2   4.8    SE   1.21  14.5   ESE   28.4   29.4   29.4   35.7   568.7  0.00   0.0   629    13.53    642     1.2  0.13   1.3   0.000   0.105   31.0    49   19.0   32.7    0.00   351    1    100.0   15 
14/08/22  16.30   28.7   28.8   28.3    55   18.8   3.2   SSE   0.80  12.9   SSE   28.7   30.1   30.1   36.3   568.7  0.00   0.0   599    12.88    613     0.9  0.10   1.0   0.000   0.108   31.2    49   19.2   32.9    0.00   351    1    100.0   15 
14/08/22  16.45   28.3   28.7   28.2    56   18.7   6.4    SE   1.61  14.5    SE   28.3   29.4   29.4   35.6   568.7  0.00   0.0   564    12.13    582     0.7  0.07   0.8   0.000   0.104   31.2    49   19.2   32.9    0.00   351    1    100.0   15 
14/08/22  17.00   28.3   28.4   28.2    57   19.0   3.2    SE   0.80  11.3   SSE   28.3   29.6   29.6   35.7   568.7  0.00   0.0   528    11.35    545     0.5  0.05   0.6   0.000   0.104   31.2    50   19.5   33.1    0.41   351    1    100.0   15 
14/08/22  17.15   28.5   28.8   28.3    56   18.9   0.0   SSE   0.00   9.7   SSE   28.5   29.8   29.8   35.8   568.7  0.00   0.0   487    10.47    503     0.0  0.00   0.5   0.000   0.106   31.3    50   19.6   33.4    0.00   352    1    100.0   15 
14/08/22  17.30   28.4   28.6   28.2    60   19.9   3.2    SE   0.80  14.5    SE   28.4   30.1   30.1   35.6   568.7  0.00   0.0   401     8.62    468     0.0  0.00   0.0   0.000   0.105   31.3    51   19.9   33.6    0.00   351    1    100.0   15 
14/08/22  17.45   28.8   28.9   28.4    57   19.4   0.0   SSE   0.00   9.7    SE   28.8   30.4   30.4   35.8   568.7  0.00   0.0   373     8.02    381     0.0  0.00   0.0   0.000   0.109   31.2    51   19.8   33.3    0.00   348    1    100.0   15 
14/08/22  18.00   28.9   28.9   28.6    55   19.0   0.0   ---   0.00   0.0   ---   28.9   30.4   30.4   35.4   568.7  0.00   0.0   323     6.95    362     0.0  0.00   0.0   0.000   0.111   31.0    50   19.4   32.8    0.28   349    1    100.0   15 
14/08/22  18.15   28.6   29.0   28.6    56   18.9   0.0   ---   0.00   0.0   ---   28.6   29.9   29.9   34.6   568.7  0.00   0.0   285     6.13    320     0.0  0.00   0.0   0.000   0.106   30.9    50   19.3   32.7    0.00   349    1    100.0   15 
14/08/22  18.30   29.1   29.2   28.6    43   15.2   0.0   SSW   0.00   9.7   SSW   29.1   29.4   29.4   33.7   568.7  0.00   0.0   263     5.66    285     0.0  0.00   0.0   0.000   0.112   30.8    47   18.2   32.1    0.00   351    1    100.0   15 
14/08/22  18.45   28.8   29.1   28.7    56   19.1   0.0     S   0.00   6.4     S   28.8   30.3   30.3   34.4   568.7  0.00   0.0   231     4.97    244     0.0  0.00   0.0   0.000   0.109   30.7    49   18.7   32.3    0.00   350    1    100.0   15 
14/08/22  19.00   28.3   28.7   28.2    54   18.1   0.0     S   0.00   6.4   SSW   28.3   29.2   29.2   32.3   568.7  0.00   0.0   173     3.72    197     0.0  0.00   0.0   0.000   0.104   30.6    49   18.6   32.1    0.18   348    1    100.0   15 
14/08/22  19.15   28.3   28.4   28.3    55   18.4   0.0   ---   0.00   0.0   ---   28.3   29.4   29.4   31.7   568.7  0.00   0.0   132     2.84    158     0.0  0.00   0.0   0.000   0.104   30.4    49   18.5   31.9    0.00   350    1    100.0   15 
14/08/22  19.30   28.1   28.3   28.1    57   18.7   0.0   ---   0.00   0.0   ---   28.1   29.2   29.2   30.4   568.7  0.00   0.0    80     1.72    107     0.0  0.00   0.0   0.000   0.101   30.4    49   18.5   31.9    0.00   350    1    100.0   15 
14/08/22  19.45   27.6   28.0   27.6    56   18.0   0.0   ---   0.00   0.0   ---   27.6   28.4   28.4   27.6   568.7  0.00   0.0    33     0.71     39     0.0  0.00   0.0   0.000   0.097   30.3    49   18.4   31.7    0.00   349    1    100.0   15 
14/08/22  20.00   27.6   27.6   27.5    60   19.1   0.0   ---   0.00   0.0   ---   27.6   28.7   28.7   27.8   568.7  0.00   0.0    22     0.47     26     0.0  0.00   0.0   0.000   0.096   30.2    50   18.6   31.7    0.05   351    1    100.0   15 
14/08/22  20.15   27.1   27.6   27.1    59   18.4   0.0   ---   0.00   0.0   ---   27.1   27.9   27.9   26.8   568.7  0.00   0.0     5     0.11     14     0.0  0.00   0.0   0.000   0.091   30.2    51   19.0   31.8    0.00   351    1    100.0   15 
14/08/22  20.30   26.8   27.1   26.8    61   18.6   0.0   ---   0.00   0.0   ---   26.8   27.6   27.6   26.4   568.7  0.00   0.0     0     0.00      0     0.0  0.00   0.0   0.000   0.088   30.1    51   18.9   31.6    0.00   350    1    100.0   15 
14/08/22  20.45   26.6   26.8   26.5    64   19.2   0.0   ---   0.00   0.0   ---   26.6   27.6   27.6   26.4   568.7  0.00   0.0     0     0.00      0     0.0  0.00   0.0   0.000   0.086   30.0    52   19.1   31.6    0.00   351    1    100.0   15 
14/08/22  21.00   25.8   26.6   25.8    61   17.7   0.0   ---   0.00   0.0   ---   25.8   26.4   26.4   25.2   568.7  0.00   0.0     0     0.00      0     0.0  0.00   0.0   0.000   0.078   29.9    53   19.3   31.6    0.00   349    1    100.0   15 
14/08/22  21.15   25.4   25.8   25.4    63   17.9   0.0   ---   0.00   0.0   ---   25.4   26.1   26.1   24.9   568.7  0.00   0.0     0     0.00      0     0.0  0.00   0.0   0.000   0.074   29.9    51   18.7   31.2    0.00   348    1    100.0   15 
14/08/22  21.30   24.8   25.4   24.8    66   18.0   0.0   ---   0.00   0.0   ---   24.8   25.6   25.6   24.4   568.7  0.00   0.0     0     0.00      0     0.0  0.00   0.0   0.000   0.067   29.8    52   18.9   31.2    0.00   352    1    100.0   15 
14/08/22  21.45   23.3   24.7   23.3    60   15.1   0.0   ---   0.00   0.0   ---   23.3   23.7   23.7   22.3   568.7  0.00   0.0     0     0.00      0     0.0  0.00   0.0   0.000   0.052   29.7    51   18.5   30.9    0.00   350    1    100.0   15 
14/08/22  22.00   23.1   23.3   23.1    57   14.1   0.0   ---   0.00   0.0   ---   23.1   23.3   23.3   21.9   568.7  0.00   0.0     0     0.00      0     0.0  0.00   0.0   0.000   0.050   29.3    47   16.9   30.1    0.05   349    1    100.0   15 
14/08/22  22.15   22.9   23.2   22.8    55   13.4   0.0   ---   0.00   0.0   ---   22.9   23.0   23.0   21.6   568.7  0.00   0.0     0     0.00      0     0.0  0.00   0.0   0.000   0.048   29.2    45   16.1   29.8    0.00   350    1    100.0   15 
14/08/22  22.30   22.7   23.1   22.7    55   13.2   0.0   ---   0.00   0.0   ---   22.7   22.6   22.6   21.2   568.7  0.00   0.0     0     0.00      0     0.0  0.00   0.0   0.000   0.045   29.0    44   15.5   29.5    0.00   350    1    100.0   15 
14/08/22  22.45   22.3   22.7   22.3    57   13.4   0.0   ---   0.00   0.0   ---   22.3   22.2   22.2   20.8   568.7  0.00   0.0     0     0.00      0     0.0  0.00   0.0   0.000   0.042   28.9    44   15.4   29.4    0.00   350    1    100.0   15 
14/08/22  23.00   22.5   22.6   22.3    55   13.0   0.0   ---   0.00   0.0   ---   22.5   22.4   22.4   20.9   568.7  0.00   0.0     0     0.00      0     0.0  0.00   0.0   0.000   0.043   28.8    44   15.3   29.2    0.05   349    1    100.0   15 
14/08/22  23.15   22.3   22.5   22.3    60   14.2   0.0   ---   0.00   0.0   ---   22.3   22.3   22.3   20.9   568.7  0.00   0.0     0     0.00      0     0.0  0.00   0.0   0.000   0.042   28.7    45   15.6   29.2    0.00   347    1    100.0   15 
14/08/22  23.30   22.4   22.6   22.3    60   14.3   0.0   ---   0.00   0.0   ---   22.4   22.5   22.5   21.1   568.7  0.00   0.0     0     0.00      0     0.0  0.00   0.0   0.000   0.043   28.6    45   15.5   28.9    0.00   350    1    100.0   15 
14/08/22  23.45   22.5   22.6   22.4    63   15.1   0.0   ---   0.00   0.0   ---   22.5   22.7   22.7   21.4   568.7  0.00   0.0     0     0.00      0     0.0  0.00   0.0   0.000   0.043   28.6    46   15.8   29.1    0.00   349    1    100.0   15 
15/08/22  00.00   22.7   22.7   22.4    59   14.2   0.0   ---   0.00   0.0   ---   22.7   22.8   22.8   21.4   568.7  0.00   0.0     0     0.00      0     0.0  0.00   0.0   0.000   0.045   28.4    46   15.7   28.9    0.05   350    1    100.0   15 
15/08/22   0.15   22.9   22.9   22.6    60   14.7   0.0   ---   0.00   0.0   ---   22.9   23.2   23.2   21.8   568.7  0.00   0.0     0     0.00      0     0.0  0.00   0.0   0.000   0.047   28.2    46   15.5   28.5    0.00   348    1    100.0   15 
15/08/22   0.30   23.7   23.7   22.9    63   16.2   0.0   ---   0.00   0.0   ---   23.7   24.3   24.3   23.0   568.7  0.00   0.0     0     0.00      0     0.0  0.00   0.0   0.000   0.056   28.1    46   15.4   28.3    0.00   349    1    100.0   15 
15/08/22   0.45   24.6   24.6   23.7    67   18.1   0.0   ---   0.00   0.0   ---   24.6   25.4   25.4   24.3   568.7  0.00   0.0     0     0.00      0     0.0  0.00   0.0   0.000   0.065   27.9    49   16.2   28.2    0.00   349    1    100.0   15 
15/08/22   1.00   25.3   25.3   24.6    70   19.4   0.0   ---   0.00   0.0   ---   25.3   26.4   26.4   25.3   568.7  0.00   0.0     0     0.00      0     0.0  0.00   0.0   0.000   0.072   28.0    53   17.5   28.7    0.03   351    1    100.0   15 
15/08/22   1.15   26.2   26.2   25.3    71   20.5   0.0   SSW   0.00   8.0    SW   26.2   27.6   27.6   26.6   568.7  0.00   0.0     0     0.00      0     0.0  0.00   0.0   0.000   0.082   28.1    58   19.1   29.3    0.00   350    1    100.0   15 
15/08/22   1.30   26.6   26.6   26.2    71   20.9   1.6   SSW   0.40  14.5     S   26.6   28.1   28.1   27.1   568.7  0.00   0.0     0     0.00      0     0.0  0.00   0.0   0.000   0.086   28.2    60   19.7   29.7    0.00   351    1    100.0   15 
15/08/22   1.45   26.2   26.6   26.2    70   20.3   0.0   SSW   0.00   8.0   SSW   26.2   27.6   27.6   26.5   568.7  0.00   0.0     0     0.00      0     0.0  0.00   0.0   0.000   0.082   28.3    60   19.8   29.8    0.00   350    1    100.0   15 
15/08/22   2.00   26.2   26.2   26.1    71   20.5   0.0   ---   0.00   0.0   ---   26.2   27.6   27.6   26.5   568.7  0.00   0.0     0     0.00      0     0.0  0.00   0.0   0.000   0.082   28.3    61   20.1   29.9    0.03   351    1    100.0   15 
15/08/22   2.15   25.8   26.2   25.8    71   20.2   0.0   ---   0.00   0.0   ---   25.8   27.1   27.1   26.1   568.7  0.00   0.0     0     0.00      0     0.0  0.00   0.0   0.000   0.078   28.3    61   20.1   29.9    0.00   350    1    100.0   15 
15/08/22   2.30   25.6   25.8   25.6    72   20.2   0.0   ---   0.00   0.0   ---   25.6   26.9   26.9   25.8   568.7  0.00   0.0     0     0.00      0     0.0  0.00   0.0   0.000   0.076   28.2    61   20.0   29.8    0.00   351    1    100.0   15 
15/08/22   2.45   25.4   25.6   25.4    72   20.0   0.0   ---   0.00   0.0   ---   25.4   26.7   26.7   25.6   568.7  0.00   0.0     0     0.00      0     0.0  0.00   0.0   0.000   0.074   28.2    62   20.2   29.9    0.00   350    1    100.0   15 
15/08/22   3.00   25.2   25.4   25.1    73   20.0   0.0   ---   0.00   0.0   ---   25.2   26.4   26.4   25.4   568.7  0.00   0.0     0     0.00      0     0.0  0.00   0.0   0.000   0.071   28.3    61   20.1   29.9    0.03   351    1    100.0   15 
15/08/22   3.15   24.4   25.1   24.4    74   19.5   0.0   ---   0.00   0.0   ---   24.4   25.7   25.7   24.7   568.7  0.00   0.0     0     0.00      0     0.0  0.00   0.0   0.000   0.064   28.3    61   20.1   29.9    0.00   350    1    100.0   15 
© www.elbaexplorer.com